sensor_id;sensor_type;location;lat;lon;timestamp;pressure;altitude;pressure_sealevel;temperature;humidity
41898;BME280;27576;53.366;-1.498;2023-03-19T00:01:06;99515.47;;;7.85;100.00
41898;BME280;27576;53.366;-1.498;2023-03-19T00:03:32;99498.94;;;7.65;100.00
41898;BME280;27576;53.366;-1.498;2023-03-19T00:05:58;99497.19;;;7.60;100.00
41898;BME280;27576;53.366;-1.498;2023-03-19T00:08:24;99500.56;;;7.55;100.00
41898;BME280;27576;53.366;-1.498;2023-03-19T00:10:49;99541.06;;;7.65;100.00
41898;BME280;27576;53.366;-1.498;2023-03-19T00:13:15;99555.66;;;7.65;100.00
41898;BME280;27576;53.366;-1.498;2023-03-19T00:15:40;99552.00;;;7.46;100.00
41898;BME280;27576;53.366;-1.498;2023-03-19T00:18:06;99574.44;;;7.53;100.00
41898;BME280;27576;53.366;-1.498;2023-03-19T00:20:32;99565.72;;;7.42;100.00
41898;BME280;27576;53.366;-1.498;2023-03-19T00:22:58;99549.09;;;7.18;100.00
41898;BME280;27576;53.366;-1.498;2023-03-19T00:25:23;99571.53;;;7.25;100.00
41898;BME280;27576;53.366;-1.498;2023-03-19T00:27:49;99553.28;;;7.08;100.00
41898;BME280;27576;53.366;-1.498;2023-03-19T00:30:15;99572.31;;;7.20;100.00
41898;BME280;27576;53.366;-1.498;2023-03-19T00:32:41;99552.44;;;7.11;100.00
41898;BME280;27576;53.366;-1.498;2023-03-19T00:35:07;99559.25;;;7.06;100.00
41898;BME280;27576;53.366;-1.498;2023-03-19T00:37:33;99602.34;;;7.18;100.00
41898;BME280;27576;53.366;-1.498;2023-03-19T00:39:59;99564.28;;;6.98;100.00
41898;BME280;27576;53.366;-1.498;2023-03-19T00:42:24;99567.72;;;6.99;100.00
41898;BME280;27576;53.366;-1.498;2023-03-19T00:44:50;99591.88;;;7.07;100.00
41898;BME280;27576;53.366;-1.498;2023-03-19T00:47:15;99559.09;;;6.95;100.00
41898;BME280;27576;53.366;-1.498;2023-03-19T00:49:41;99596.97;;;7.01;100.00
41898;BME280;27576;53.366;-1.498;2023-03-19T00:52:06;99605.56;;;7.03;100.00
41898;BME280;27576;53.366;-1.498;2023-03-19T00:54:32;99589.03;;;6.87;100.00
41898;BME280;27576;53.366;-1.498;2023-03-19T00:56:58;99575.28;;;6.86;100.00
41898;BME280;27576;53.366;-1.498;2023-03-19T00:59:24;99598.66;;;6.99;100.00
41898;BME280;27576;53.366;-1.498;2023-03-19T01:01:50;99621.03;;;7.03;100.00
41898;BME280;27576;53.366;-1.498;2023-03-19T01:04:16;99581.28;;;6.85;100.00
41898;BME280;27576;53.366;-1.498;2023-03-19T01:06:42;99599.50;;;6.99;100.00
41898;BME280;27576;53.366;-1.498;2023-03-19T01:09:07;99614.25;;;7.08;100.00
41898;BME280;27576;53.366;-1.498;2023-03-19T01:11:33;99579.75;;;6.98;100.00
41898;BME280;27576;53.366;-1.498;2023-03-19T01:13:58;99588.31;;;6.96;100.00
41898;BME280;27576;53.366;-1.498;2023-03-19T01:16:24;99621.13;;;7.07;100.00
41898;BME280;27576;53.366;-1.498;2023-03-19T01:18:49;99611.72;;;7.12;100.00
41898;BME280;27576;53.366;-1.498;2023-03-19T01:21:15;99627.31;;;7.22;100.00
41898;BME280;27576;53.366;-1.498;2023-03-19T01:23:40;99604.84;;;7.11;100.00
41898;BME280;27576;53.366;-1.498;2023-03-19T01:26:06;99617.91;;;7.24;100.00
41898;BME280;27576;53.366;-1.498;2023-03-19T01:28:31;99586.81;;;7.11;100.00
41898;BME280;27576;53.366;-1.498;2023-03-19T01:31:00;99600.50;;;7.09;100.00
41898;BME280;27576;53.366;-1.498;2023-03-19T01:33:26;99619.34;;;7.05;100.00
41898;BME280;27576;53.366;-1.498;2023-03-19T01:35:52;99608.09;;;6.98;100.00
41898;BME280;27576;53.366;-1.498;2023-03-19T01:38:17;99600.16;;;6.84;100.00
41898;BME280;27576;53.366;-1.498;2023-03-19T01:40:47;99623.59;;;7.01;100.00
41898;BME280;27576;53.366;-1.498;2023-03-19T01:43:19;99629.53;;;6.96;100.00
41898;BME280;27576;53.366;-1.498;2023-03-19T01:45:46;99550.66;;;6.45;100.00
41898;BME280;27576;53.366;-1.498;2023-03-19T01:48:46;99632.06;;;6.94;100.00
41898;BME280;27576;53.366;-1.498;2023-03-19T01:51:14;99605.16;;;6.74;100.00
41898;BME280;27576;53.366;-1.498;2023-03-19T01:53:42;99608.66;;;6.77;100.00
41898;BME280;27576;53.366;-1.498;2023-03-19T01:56:42;99622.63;;;6.95;100.00
41898;BME280;27576;53.366;-1.498;2023-03-19T01:59:13;99617.41;;;6.92;100.00
41898;BME280;27576;53.366;-1.498;2023-03-19T02:01:48;99615.84;;;7.00;100.00
41898;BME280;27576;53.366;-1.498;2023-03-19T02:04:15;99626.16;;;7.00;100.00
41898;BME280;27576;53.366;-1.498;2023-03-19T02:06:41;99627.03;;;7.00;100.00
41898;BME280;27576;53.366;-1.498;2023-03-19T02:09:08;99632.13;;;6.99;100.00
41898;BME280;27576;53.366;-1.498;2023-03-19T02:11:34;99596.63;;;6.79;100.00
41898;BME280;27576;53.366;-1.498;2023-03-19T02:14:00;99626.97;;;6.97;100.00
41898;BME280;27576;53.366;-1.498;2023-03-19T02:16:26;99597.50;;;6.78;100.00
41898;BME280;27576;53.366;-1.498;2023-03-19T02:18:51;99616.53;;;6.88;100.00
41898;BME280;27576;53.366;-1.498;2023-03-19T02:21:18;99592.28;;;6.74;100.00
41898;BME280;27576;53.366;-1.498;2023-03-19T02:24:20;99626.16;;;7.01;100.00
41898;BME280;27576;53.366;-1.498;2023-03-19T02:26:47;99611.38;;;6.88;100.00
41898;BME280;27576;53.366;-1.498;2023-03-19T02:29:13;99628.72;;;7.00;100.00
41898;BME280;27576;53.366;-1.498;2023-03-19T02:31:39;99616.56;;;6.89;100.00
41898;BME280;27576;53.366;-1.498;2023-03-19T02:34:31;99620.72;;;6.81;100.00
41898;BME280;27576;53.366;-1.498;2023-03-19T02:36:58;99639.72;;;6.89;100.00
41898;BME280;27576;53.366;-1.498;2023-03-19T02:39:30;99627.59;;;6.82;100.00
41898;BME280;27576;53.366;-1.498;2023-03-19T02:41:58;99622.19;;;6.67;100.00
41898;BME280;27576;53.366;-1.498;2023-03-19T02:44:24;99611.63;;;6.49;100.00
41898;BME280;27576;53.366;-1.498;2023-03-19T02:46:50;99649.72;;;6.70;100.00
41898;BME280;27576;53.366;-1.498;2023-03-19T02:49:16;99608.88;;;6.39;100.00
41898;BME280;27576;53.366;-1.498;2023-03-19T02:51:41;99627.75;;;6.38;100.00
41898;BME280;27576;53.366;-1.498;2023-03-19T02:54:07;99650.31;;;6.55;100.00
41898;BME280;27576;53.366;-1.498;2023-03-19T02:56:32;99623.34;;;6.31;100.00
41898;BME280;27576;53.366;-1.498;2023-03-19T02:58:58;99668.25;;;6.49;100.00
41898;BME280;27576;53.366;-1.498;2023-03-19T03:01:23;99633.56;;;6.28;100.00
41898;BME280;27576;53.366;-1.498;2023-03-19T03:03:50;99662.94;;;6.39;100.00
41898;BME280;27576;53.366;-1.498;2023-03-19T03:06:18;99650.69;;;6.26;100.00
41898;BME280;27576;53.366;-1.498;2023-03-19T03:08:43;99674.97;;;6.41;100.00
41898;BME280;27576;53.366;-1.498;2023-03-19T03:11:09;99656.69;;;6.25;100.00
41898;BME280;27576;53.366;-1.498;2023-03-19T03:13:34;99668.78;;;6.31;100.00
41898;BME280;27576;53.366;-1.498;2023-03-19T03:16:00;99674.91;;;6.37;100.00
41898;BME280;27576;53.366;-1.498;2023-03-19T03:18:26;99676.56;;;6.35;100.00
41898;BME280;27576;53.366;-1.498;2023-03-19T03:20:51;99679.22;;;6.38;100.00
41898;BME280;27576;53.366;-1.498;2023-03-19T03:23:18;99677.50;;;6.39;100.00
41898;BME280;27576;53.366;-1.498;2023-03-19T03:25:44;99669.63;;;6.30;100.00
41898;BME280;27576;53.366;-1.498;2023-03-19T03:28:09;99693.81;;;6.39;100.00
41898;BME280;27576;53.366;-1.498;2023-03-19T03:30:35;99640.94;;;6.08;100.00
41898;BME280;27576;53.366;-1.498;2023-03-19T03:33:00;99680.63;;;6.21;100.00
41898;BME280;27576;53.366;-1.498;2023-03-19T03:35:26;99696.25;;;6.32;100.00
41898;BME280;27576;53.366;-1.498;2023-03-19T03:37:52;99630.16;;;5.85;100.00
41898;BME280;27576;53.366;-1.498;2023-03-19T03:40:17;99705.56;;;6.25;100.00
41898;BME280;27576;53.366;-1.498;2023-03-19T03:42:44;99676.13;;;6.09;100.00
41898;BME280;27576;53.366;-1.498;2023-03-19T03:45:10;99704.56;;;6.19;100.00
41898;BME280;27576;53.366;-1.498;2023-03-19T03:47:36;99688.09;;;6.09;100.00
41898;BME280;27576;53.366;-1.498;2023-03-19T03:50:02;99662.09;;;5.94;100.00
41898;BME280;27576;53.366;-1.498;2023-03-19T03:52:30;99691.41;;;6.03;100.00
41898;BME280;27576;53.366;-1.498;2023-03-19T03:54:59;99701.72;;;6.05;100.00
41898;BME280;27576;53.366;-1.498;2023-03-19T03:57:24;99699.13;;;6.03;100.00
41898;BME280;27576;53.366;-1.498;2023-03-19T03:59:50;99710.25;;;6.02;100.00
41898;BME280;27576;53.366;-1.498;2023-03-19T04:02:15;99676.41;;;5.82;100.00
41898;BME280;27576;53.366;-1.498;2023-03-19T04:04:41;99656.47;;;5.72;100.00
41898;BME280;27576;53.366;-1.498;2023-03-19T04:07:06;99686.78;;;5.87;100.00
41898;BME280;27576;53.366;-1.498;2023-03-19T04:09:32;99675.38;;;5.74;100.00
41898;BME280;27576;53.366;-1.498;2023-03-19T04:11:57;99723.81;;;5.94;100.00
41898;BME280;27576;53.366;-1.498;2023-03-19T04:14:23;99684.81;;;5.75;100.00
41898;BME280;27576;53.366;-1.498;2023-03-19T04:16:48;99702.91;;;5.80;100.00
41898;BME280;27576;53.366;-1.498;2023-03-19T04:19:13;99716.69;;;5.83;100.00
41898;BME280;27576;53.366;-1.498;2023-03-19T04:21:39;99717.53;;;5.82;100.00
41898;BME280;27576;53.366;-1.498;2023-03-19T04:24:05;99699.94;;;5.61;100.00
41898;BME280;27576;53.366;-1.498;2023-03-19T04:26:30;99731.34;;;5.87;100.00
41898;BME280;27576;53.366;-1.498;2023-03-19T04:28:57;99740.78;;;5.87;100.00
41898;BME280;27576;53.366;-1.498;2023-03-19T04:31:22;99718.19;;;5.72;100.00
41898;BME280;27576;53.366;-1.498;2023-03-19T04:33:48;99727.75;;;5.79;100.00
41898;BME280;27576;53.366;-1.498;2023-03-19T04:36:13;99733.84;;;5.84;100.00
41898;BME280;27576;53.366;-1.498;2023-03-19T04:38:39;99699.94;;;5.61;100.00
41898;BME280;27576;53.366;-1.498;2023-03-19T04:41:04;99698.31;;;5.65;100.00
41898;BME280;27576;53.366;-1.498;2023-03-19T04:43:29;99745.88;;;5.85;100.00
41898;BME280;27576;53.366;-1.498;2023-03-19T04:45:55;99728.38;;;5.69;100.00
41898;BME280;27576;53.366;-1.498;2023-03-19T04:48:20;99699.00;;;5.58;100.00
41898;BME280;27576;53.366;-1.498;2023-03-19T04:50:46;99714.44;;;5.58;100.00
41898;BME280;27576;53.366;-1.498;2023-03-19T04:53:15;99760.34;;;5.80;100.00
41898;BME280;27576;53.366;-1.498;2023-03-19T04:55:41;99761.19;;;5.79;100.00
41898;BME280;27576;53.366;-1.498;2023-03-19T04:58:06;99713.38;;;5.48;100.00
41898;BME280;27576;53.366;-1.498;2023-03-19T05:00:33;99752.38;;;5.70;100.00
41898;BME280;27576;53.366;-1.498;2023-03-19T05:02:58;99747.03;;;5.59;100.00
41898;BME280;27576;53.366;-1.498;2023-03-19T05:05:24;99766.91;;;5.68;100.00
41898;BME280;27576;53.366;-1.498;2023-03-19T05:07:49;99733.19;;;5.54;100.00
41898;BME280;27576;53.366;-1.498;2023-03-19T05:10:15;99738.31;;;5.52;100.00
41898;BME280;27576;53.366;-1.498;2023-03-19T05:12:40;99780.66;;;5.70;100.00
41898;BME280;27576;53.366;-1.498;2023-03-19T05:15:06;99777.19;;;5.68;100.00
41898;BME280;27576;53.366;-1.498;2023-03-19T05:17:32;99731.19;;;5.40;100.00
41898;BME280;27576;53.366;-1.498;2023-03-19T05:19:58;99772.75;;;5.60;100.00
41898;BME280;27576;53.366;-1.498;2023-03-19T05:22:23;99768.34;;;5.55;100.00
41898;BME280;27576;53.366;-1.498;2023-03-19T05:24:48;99757.09;;;5.50;100.00
41898;BME280;27576;53.366;-1.498;2023-03-19T05:27:14;99780.53;;;5.63;100.00
41898;BME280;27576;53.366;-1.498;2023-03-19T05:29:40;99762.09;;;5.44;100.00
41898;BME280;27576;53.366;-1.498;2023-03-19T05:32:07;99783.78;;;5.55;100.00
41898;BME280;27576;53.366;-1.498;2023-03-19T05:34:32;99772.47;;;5.48;100.00
41898;BME280;27576;53.366;-1.498;2023-03-19T05:36:58;99796.72;;;5.59;100.00
41898;BME280;27576;53.366;-1.498;2023-03-19T05:39:23;99795.78;;;5.56;100.00
41898;BME280;27576;53.366;-1.498;2023-03-19T05:41:49;99802.75;;;5.61;100.00
41898;BME280;27576;53.366;-1.498;2023-03-19T05:44:14;99775.84;;;5.46;100.00
41898;BME280;27576;53.366;-1.498;2023-03-19T05:46:40;99794.94;;;5.57;100.00
41898;BME280;27576;53.366;-1.498;2023-03-19T05:49:06;99777.63;;;5.50;100.00
41898;BME280;27576;53.366;-1.498;2023-03-19T05:51:31;99792.28;;;5.54;100.00
41898;BME280;27576;53.366;-1.498;2023-03-19T05:53:57;99790.53;;;5.51;100.00
41898;BME280;27576;53.366;-1.498;2023-03-19T05:56:22;99788.63;;;5.43;100.00
41898;BME280;27576;53.366;-1.498;2023-03-19T05:58:47;99810.28;;;5.54;100.00
41898;BME280;27576;53.366;-1.498;2023-03-19T06:01:13;99770.34;;;5.30;100.00
41898;BME280;27576;53.366;-1.498;2023-03-19T06:03:38;99797.31;;;5.48;100.00
41898;BME280;27576;53.366;-1.498;2023-03-19T06:06:04;99829.28;;;5.60;100.00
41898;BME280;27576;53.366;-1.498;2023-03-19T06:08:29;99822.38;;;5.58;100.00
41898;BME280;27576;53.366;-1.498;2023-03-19T06:10:55;99806.66;;;5.46;100.00
41898;BME280;27576;53.366;-1.498;2023-03-19T06:13:20;99814.34;;;5.43;100.00
41898;BME280;27576;53.366;-1.498;2023-03-19T06:15:47;99799.59;;;5.35;100.00
41898;BME280;27576;53.366;-1.498;2023-03-19T06:18:13;99809.09;;;5.39;100.00
41898;BME280;27576;53.366;-1.498;2023-03-19T06:20:38;99812.53;;;5.38;100.00
41898;BME280;27576;53.366;-1.498;2023-03-19T06:23:04;99819.38;;;5.39;100.00
41898;BME280;27576;53.366;-1.498;2023-03-19T06:25:29;99831.41;;;5.42;100.00
41898;BME280;27576;53.366;-1.498;2023-03-19T06:27:55;99823.75;;;5.44;100.00
41898;BME280;27576;53.366;-1.498;2023-03-19T06:30:20;99841.66;;;5.39;100.00
41898;BME280;27576;53.366;-1.498;2023-03-19T06:32:46;99839.09;;;5.40;100.00
41898;BME280;27576;53.366;-1.498;2023-03-19T06:35:11;99871.19;;;5.56;100.00
41898;BME280;27576;53.366;-1.498;2023-03-19T06:37:37;99871.19;;;5.58;100.00
41898;BME280;27576;53.366;-1.498;2023-03-19T06:40:03;99872.03;;;5.57;100.00
41898;BME280;27576;53.366;-1.498;2023-03-19T06:42:29;99878.91;;;5.58;100.00
41898;BME280;27576;53.366;-1.498;2023-03-19T06:44:54;99829.41;;;5.30;100.00
41898;BME280;27576;53.366;-1.498;2023-03-19T06:47:20;99871.19;;;5.58;100.00
41898;BME280;27576;53.366;-1.498;2023-03-19T06:49:45;99865.00;;;5.50;100.00
41898;BME280;27576;53.366;-1.498;2023-03-19T06:52:11;99836.38;;;5.34;100.00
41898;BME280;27576;53.366;-1.498;2023-03-19T06:54:36;99885.91;;;5.62;100.00
41898;BME280;27576;53.366;-1.498;2023-03-19T06:57:01;99850.25;;;5.41;100.00
41898;BME280;27576;53.366;-1.498;2023-03-19T06:59:27;99894.50;;;5.64;100.00
41898;BME280;27576;53.366;-1.498;2023-03-19T07:01:52;99851.06;;;5.38;100.00
41898;BME280;27576;53.366;-1.498;2023-03-19T07:04:18;99874.59;;;5.55;100.00
41898;BME280;27576;53.366;-1.498;2023-03-19T07:06:44;99904.13;;;5.73;100.00
41898;BME280;27576;53.366;-1.498;2023-03-19T07:09:09;99878.03;;;5.57;100.00
41898;BME280;27576;53.366;-1.498;2023-03-19T07:11:35;99916.28;;;5.78;100.00
41898;BME280;27576;53.366;-1.498;2023-03-19T07:14:01;99884.22;;;5.64;100.00
41898;BME280;27576;53.366;-1.498;2023-03-19T07:16:27;99894.03;;;5.80;100.00
41898;BME280;27576;53.366;-1.498;2023-03-19T07:18:52;99897.34;;;5.76;100.00
41898;BME280;27576;53.366;-1.498;2023-03-19T07:21:17;99909.44;;;5.79;100.00
41898;BME280;27576;53.366;-1.498;2023-03-19T07:23:43;99901.81;;;5.83;100.00
41898;BME280;27576;53.366;-1.498;2023-03-19T07:26:11;99917.47;;;5.93;100.00
41898;BME280;27576;53.366;-1.498;2023-03-19T07:28:37;99937.47;;;6.04;100.00
41898;BME280;27576;53.366;-1.498;2023-03-19T07:31:03;99871.75;;;5.81;100.00
41898;BME280;27576;53.366;-1.498;2023-03-19T07:33:28;99885.06;;;5.98;100.00
41898;BME280;27576;53.366;-1.498;2023-03-19T07:35:54;99923.44;;;6.28;100.00
41898;BME280;27576;53.366;-1.498;2023-03-19T07:38:19;99906.09;;;6.19;100.00
41898;BME280;27576;53.366;-1.498;2023-03-19T07:40:44;99917.47;;;6.29;100.00
41898;BME280;27576;53.366;-1.498;2023-03-19T07:43:10;99919.94;;;6.24;100.00
41898;BME280;27576;53.366;-1.498;2023-03-19T07:45:35;99917.50;;;6.30;100.00
41898;BME280;27576;53.366;-1.498;2023-03-19T07:48:01;99931.41;;;6.38;100.00
41898;BME280;27576;53.366;-1.498;2023-03-19T07:50:29;99917.50;;;6.30;100.00
41898;BME280;27576;53.366;-1.498;2023-03-19T07:52:55;99907.13;;;6.27;100.00
41898;BME280;27576;53.366;-1.498;2023-03-19T07:55:21;99929.94;;;6.50;100.00
41898;BME280;27576;53.366;-1.498;2023-03-19T07:57:46;99932.47;;;6.48;100.00
41898;BME280;27576;53.366;-1.498;2023-03-19T08:00:12;99965.47;;;6.68;100.00
41898;BME280;27576;53.366;-1.498;2023-03-19T08:02:39;99951.66;;;6.62;100.00
41898;BME280;27576;53.366;-1.498;2023-03-19T08:05:05;99953.50;;;6.68;100.00
41898;BME280;27576;53.366;-1.498;2023-03-19T08:07:31;99956.13;;;6.71;100.00
41898;BME280;27576;53.366;-1.498;2023-03-19T08:09:56;99954.56;;;6.78;100.00
41898;BME280;27576;53.366;-1.498;2023-03-19T08:12:23;99968.44;;;6.86;100.00
41898;BME280;27576;53.366;-1.498;2023-03-19T08:14:49;99965.03;;;6.87;100.00
41898;BME280;27576;53.366;-1.498;2023-03-19T08:17:14;99982.50;;;7.00;100.00
41898;BME280;27576;53.366;-1.498;2023-03-19T08:19:40;99994.66;;;7.07;100.00
41898;BME280;27576;53.366;-1.498;2023-03-19T08:22:05;99974.78;;;7.02;100.00
41898;BME280;27576;53.366;-1.498;2023-03-19T08:24:31;99985.41;;;7.17;100.00
41898;BME280;27576;53.366;-1.498;2023-03-19T08:26:57;99975.09;;;7.17;100.00
41898;BME280;27576;53.366;-1.498;2023-03-19T08:29:22;99979.59;;;7.27;100.00
41898;BME280;27576;53.366;-1.498;2023-03-19T08:31:50;99985.75;;;7.35;100.00
41898;BME280;27576;53.366;-1.498;2023-03-19T08:34:15;99965.78;;;7.24;100.00
41898;BME280;27576;53.366;-1.498;2023-03-19T08:36:41;99962.28;;;7.22;100.00
41898;BME280;27576;53.366;-1.498;2023-03-19T08:39:06;99956.22;;;7.18;100.00
41898;BME280;27576;53.366;-1.498;2023-03-19T08:41:31;100003.97;;;7.45;100.00
41898;BME280;27576;53.366;-1.498;2023-03-19T08:43:57;100011.84;;;7.52;100.00
41898;BME280;27576;53.366;-1.498;2023-03-19T08:46:22;99984.13;;;7.39;100.00
41898;BME280;27576;53.366;-1.498;2023-03-19T08:48:47;100010.28;;;7.62;100.00
41898;BME280;27576;53.366;-1.498;2023-03-19T08:51:13;99957.38;;;7.34;100.00
41898;BME280;27576;53.366;-1.498;2023-03-19T08:53:39;99983.44;;;7.49;100.00
41898;BME280;27576;53.366;-1.498;2023-03-19T08:56:05;100005.25;;;7.68;100.00
41898;BME280;27576;53.366;-1.498;2023-03-19T08:58:31;100020.81;;;7.73;100.00
41898;BME280;27576;53.366;-1.498;2023-03-19T09:03:27;100015.59;;;7.68;100.00
41898;BME280;27576;53.366;-1.498;2023-03-19T09:05:57;100021.75;;;7.78;100.00
41898;BME280;27576;53.366;-1.498;2023-03-19T09:08:22;99997.59;;;7.71;100.00
41898;BME280;27576;53.366;-1.498;2023-03-19T09:10:47;100009.06;;;7.88;100.00
41898;BME280;27576;53.366;-1.498;2023-03-19T09:13:13;100033.47;;;8.09;100.00
41898;BME280;27576;53.366;-1.498;2023-03-19T09:15:38;100013.63;;;8.05;100.00
41898;BME280;27576;53.366;-1.498;2023-03-19T09:18:03;100010.22;;;8.06;100.00
41898;BME280;27576;53.366;-1.498;2023-03-19T09:20:29;100029.41;;;8.23;100.00
41898;BME280;27576;53.366;-1.498;2023-03-19T09:22:54;100033.91;;;8.35;100.00
41898;BME280;27576;53.366;-1.498;2023-03-19T09:25:19;100021.09;;;8.38;100.00
41898;BME280;27576;53.366;-1.498;2023-03-19T09:27:45;100022.03;;;8.43;100.00
41898;BME280;27576;53.366;-1.498;2023-03-19T09:30:11;100018.56;;;8.43;100.00
41898;BME280;27576;53.366;-1.498;2023-03-19T09:32:36;100027.31;;;8.51;100.00
41898;BME280;27576;53.366;-1.498;2023-03-19T09:35:02;100017.94;;;8.57;98.67
41898;BME280;27576;53.366;-1.498;2023-03-19T09:37:27;100053.59;;;8.83;97.42
41898;BME280;27576;53.366;-1.498;2023-03-19T09:39:53;100039.81;;;8.82;97.65
41898;BME280;27576;53.366;-1.498;2023-03-19T09:45:14;100052.22;;;9.08;97.59
41898;BME280;27576;53.366;-1.498;2023-03-19T09:47:40;100057.47;;;9.13;96.47
41898;BME280;27576;53.366;-1.498;2023-03-19T09:50:22;100069.53;;;9.15;94.32
41898;BME280;27576;53.366;-1.498;2023-03-19T09:53:00;100061.88;;;9.23;98.95
41898;BME280;27576;53.366;-1.498;2023-03-19T09:55:44;100055.88;;;9.25;97.88
41898;BME280;27576;53.366;-1.498;2023-03-19T09:58:22;100065.56;;;9.42;95.11
41898;BME280;27576;53.366;-1.498;2023-03-19T10:00:51;100063.16;;;9.55;97.13
41898;BME280;27576;53.366;-1.498;2023-03-19T10:14:34;100085.13;;;9.96;90.93
41898;BME280;27576;53.366;-1.498;2023-03-19T10:17:11;100082.75;;;10.14;91.74
41898;BME280;27576;53.366;-1.498;2023-03-19T10:19:46;100028.22;;;10.00;91.50
41898;BME280;27576;53.366;-1.498;2023-03-19T10:22:21;100098.63;;;10.51;87.67
41898;BME280;27576;53.366;-1.498;2023-03-19T10:24:48;100093.44;;;10.51;87.93
41898;BME280;27576;53.366;-1.498;2023-03-19T10:27:17;100071.00;;;10.53;86.99
41898;BME280;27576;53.366;-1.498;2023-03-19T10:29:43;100083.25;;;10.75;88.81
41898;BME280;27576;53.366;-1.498;2023-03-19T10:32:18;100083.44;;;11.01;87.93
41898;BME280;27576;53.366;-1.498;2023-03-19T10:34:46;100085.22;;;11.13;85.20
41898;BME280;27576;53.366;-1.498;2023-03-19T10:37:23;100102.63;;;11.33;84.09
41898;BME280;27576;53.366;-1.498;2023-03-19T10:39:52;100118.22;;;11.43;83.03
41898;BME280;27576;53.366;-1.498;2023-03-19T10:42:35;100095.69;;;11.35;83.33
41898;BME280;27576;53.366;-1.498;2023-03-19T10:47:39;100095.78;;;11.59;80.49
41898;BME280;27576;53.366;-1.498;2023-03-19T10:50:06;100107.97;;;11.75;80.61
41898;BME280;27576;53.366;-1.498;2023-03-19T10:52:34;100104.50;;;11.76;78.04
41898;BME280;27576;53.366;-1.498;2023-03-19T10:55:13;100118.44;;;11.91;78.75
41898;BME280;27576;53.366;-1.498;2023-03-19T10:57:42;100107.22;;;12.09;78.46
41898;BME280;27576;53.366;-1.498;2023-03-19T11:00:20;100122.84;;;12.45;72.04
41898;BME280;27576;53.366;-1.498;2023-03-19T11:02:54;100115.03;;;12.53;71.54
41898;BME280;27576;53.366;-1.498;2023-03-19T11:07:49;100120.19;;;13.14;73.90
41898;BME280;27576;53.366;-1.498;2023-03-19T11:10:16;100108.84;;;13.40;74.02
41898;BME280;27576;53.366;-1.498;2023-03-19T11:12:46;100118.31;;;13.62;71.06
41898;BME280;27576;53.366;-1.498;2023-03-19T11:15:25;100117.38;;;13.79;72.18
41898;BME280;27576;53.366;-1.498;2023-03-19T11:17:57;100121.66;;;13.93;71.43
41898;BME280;27576;53.366;-1.498;2023-03-19T11:20:31;100102.75;;;13.56;68.27
41898;BME280;27576;53.366;-1.498;2023-03-19T11:22:58;100101.09;;;13.15;69.60
41898;BME280;27576;53.366;-1.498;2023-03-19T11:25:34;100139.31;;;13.01;73.68
41898;BME280;27576;53.366;-1.498;2023-03-19T11:28:05;100141.03;;;12.65;72.46
41898;BME280;27576;53.366;-1.498;2023-03-19T11:30:37;100090.78;;;12.48;74.30
41898;BME280;27576;53.366;-1.498;2023-03-19T11:35:36;100097.72;;;12.80;74.44
41898;BME280;27576;53.366;-1.498;2023-03-19T11:38:03;100090.72;;;13.11;76.41
41898;BME280;27576;53.366;-1.498;2023-03-19T11:41:16;100103.56;;;13.63;70.29
41898;BME280;27576;53.366;-1.498;2023-03-19T11:44:27;100108.66;;;13.89;70.81
41898;BME280;27576;53.366;-1.498;2023-03-19T11:47:00;100113.91;;;13.81;65.42
41898;BME280;27576;53.366;-1.498;2023-03-19T11:52:17;100104.59;;;13.10;66.38
41898;BME280;27576;53.366;-1.498;2023-03-19T12:00:45;100125.41;;;13.33;62.71
41898;BME280;27576;53.366;-1.498;2023-03-19T12:06:15;100130.63;;;12.84;68.01
41898;BME280;27576;53.366;-1.498;2023-03-19T12:08:54;100117.66;;;12.58;64.71
41898;BME280;27576;53.366;-1.498;2023-03-19T12:11:32;100100.31;;;12.21;64.63
41898;BME280;27576;53.366;-1.498;2023-03-19T12:16:47;100129.75;;;12.07;68.96
41898;BME280;27576;53.366;-1.498;2023-03-19T12:19:41;100129.78;;;12.65;67.19
41898;BME280;27576;53.366;-1.498;2023-03-19T12:22:19;100125.41;;;13.00;66.62
41898;BME280;27576;53.366;-1.498;2023-03-19T12:27:54;100113.06;;;13.78;64.02
41898;BME280;27576;53.366;-1.498;2023-03-19T12:30:33;100132.03;;;13.98;62.21
41898;BME280;27576;53.366;-1.498;2023-03-19T12:33:26;100117.38;;;13.85;59.36
41898;BME280;27576;53.366;-1.498;2023-03-19T12:35:59;100121.03;;;13.38;62.35
41898;BME280;27576;53.366;-1.498;2023-03-19T12:38:38;100146.22;;;13.13;65.96
41898;BME280;27576;53.366;-1.498;2023-03-19T12:41:19;100122.81;;;12.88;63.58
41898;BME280;27576;53.366;-1.498;2023-03-19T12:46:47;100146.25;;;12.77;65.67
41898;BME280;27576;53.366;-1.498;2023-03-19T12:49:30;100150.59;;;12.51;66.34
41898;BME280;27576;53.366;-1.498;2023-03-19T12:52:11;100147.94;;;12.29;67.27
41898;BME280;27576;53.366;-1.498;2023-03-19T12:54:47;100144.47;;;12.18;67.30
41898;BME280;27576;53.366;-1.498;2023-03-19T12:57:47;100166.97;;;12.16;69.29
41898;BME280;27576;53.366;-1.498;2023-03-19T13:05:23;100150.56;;;12.37;72.03
41898;BME280;27576;53.366;-1.498;2023-03-19T13:10:24;100140.84;;;13.71;72.50
41898;BME280;27576;53.366;-1.498;2023-03-19T13:12:50;100132.59;;;14.47;69.65
41898;BME280;27576;53.366;-1.498;2023-03-19T13:15:34;100136.09;;;15.42;67.02
41898;BME280;27576;53.366;-1.498;2023-03-19T13:23:22;100113.34;;;17.23;50.74
41898;BME280;27576;53.366;-1.498;2023-03-19T13:25:49;100119.63;;;17.14;51.40
41898;BME280;27576;53.366;-1.498;2023-03-19T13:28:26;100121.31;;;17.17;49.07
41898;BME280;27576;53.366;-1.498;2023-03-19T13:36:40;100136.44;;;17.01;51.10
41898;BME280;27576;53.366;-1.498;2023-03-19T13:39:33;100136.00;;;17.24;49.11
41898;BME280;27576;53.366;-1.498;2023-03-19T13:44:53;100158.09;;;17.57;52.54
41898;BME280;27576;53.366;-1.498;2023-03-19T14:00:54;100158.53;;;18.94;45.10
41898;BME280;27576;53.366;-1.498;2023-03-19T14:03:23;100154.31;;;19.23;48.48
41898;BME280;27576;53.366;-1.498;2023-03-19T14:05:51;100157.09;;;19.49;48.45
41898;BME280;27576;53.366;-1.498;2023-03-19T14:08:26;100162.69;;;19.70;42.00
41898;BME280;27576;53.366;-1.498;2023-03-19T14:10:55;100155.00;;;19.60;46.07
41898;BME280;27576;53.366;-1.498;2023-03-19T14:13:28;100167.59;;;19.17;44.72